sensor_id;sensor_type;location;lat;lon;timestamp;pressure;altitude;pressure_sealevel;temperature;humidity
15308;BME280;7755;52.208;6.964;2022-12-20T00:00:12;101022.38;;;10.14;100.00
15308;BME280;7755;52.208;6.964;2022-12-20T00:04:17;101015.19;;;10.20;100.00
15308;BME280;7755;52.208;6.964;2022-12-20T00:08:20;101011.81;;;10.24;100.00
15308;BME280;7755;52.208;6.964;2022-12-20T00:12:23;101010.75;;;10.25;100.00
15308;BME280;7755;52.208;6.964;2022-12-20T00:16:27;101014.22;;;10.32;100.00
15308;BME280;7755;52.208;6.964;2022-12-20T00:20:31;101010.56;;;10.38;100.00
15308;BME280;7755;52.208;6.964;2022-12-20T00:24:34;100988.22;;;10.36;100.00
15308;BME280;7755;52.208;6.964;2022-12-20T00:28:38;101001.59;;;10.38;100.00
15308;BME280;7755;52.208;6.964;2022-12-20T00:32:41;100998.38;;;10.41;100.00
15308;BME280;7755;52.208;6.964;2022-12-20T00:36:46;100992.38;;;10.39;100.00
15308;BME280;7755;52.208;6.964;2022-12-20T00:40:58;100981.25;;;10.41;100.00
15308;BME280;7755;52.208;6.964;2022-12-20T00:45:02;100971.81;;;10.43;100.00
15308;BME280;7755;52.208;6.964;2022-12-20T00:49:04;100965.31;;;10.44;100.00
15308;BME280;7755;52.208;6.964;2022-12-20T00:53:09;100968.63;;;10.46;100.00
15308;BME280;7755;52.208;6.964;2022-12-20T00:57:12;100967.31;;;10.49;100.00
15308;BME280;7755;52.208;6.964;2022-12-20T01:01:18;100966.88;;;10.52;100.00
15308;BME280;7755;52.208;6.964;2022-12-20T01:05:22;100969.47;;;10.58;100.00
15308;BME280;7755;52.208;6.964;2022-12-20T01:09:26;100957.78;;;10.58;100.00
15308;BME280;7755;52.208;6.964;2022-12-20T01:13:29;100967.34;;;10.60;100.00
15308;BME280;7755;52.208;6.964;2022-12-20T01:17:33;100957.88;;;10.63;100.00
15308;BME280;7755;52.208;6.964;2022-12-20T01:21:35;100969.63;;;10.63;100.00
15308;BME280;7755;52.208;6.964;2022-12-20T01:25:41;100975.63;;;10.65;100.00
15308;BME280;7755;52.208;6.964;2022-12-20T01:29:44;100987.34;;;10.66;100.00
15308;BME280;7755;52.208;6.964;2022-12-20T01:33:48;100980.50;;;10.63;100.00
15308;BME280;7755;52.208;6.964;2022-12-20T01:37:51;100979.19;;;10.66;100.00
15308;BME280;7755;52.208;6.964;2022-12-20T01:41:56;100977.53;;;10.65;100.00
15308;BME280;7755;52.208;6.964;2022-12-20T01:45:59;100958.50;;;10.65;100.00
15308;BME280;7755;52.208;6.964;2022-12-20T01:50:03;100958.84;;;10.69;100.00
15308;BME280;7755;52.208;6.964;2022-12-20T01:54:10;100966.53;;;10.72;100.00
15308;BME280;7755;52.208;6.964;2022-12-20T01:58:18;100960.88;;;10.73;100.00
15308;BME280;7755;52.208;6.964;2022-12-20T02:02:22;100953.03;;;10.77;100.00
15308;BME280;7755;52.208;6.964;2022-12-20T02:06:26;100948.22;;;10.79;100.00
15308;BME280;7755;52.208;6.964;2022-12-20T02:10:40;100943.13;;;10.82;100.00
15308;BME280;7755;52.208;6.964;2022-12-20T02:15:01;100948.94;;;10.86;100.00
15308;BME280;7755;52.208;6.964;2022-12-20T02:19:11;100951.78;;;10.91;100.00
15308;BME280;7755;52.208;6.964;2022-12-20T02:23:51;100952.94;;;10.95;100.00
15308;BME280;7755;52.208;6.964;2022-12-20T02:28:02;100963.59;;;10.97;100.00
15308;BME280;7755;52.208;6.964;2022-12-20T02:32:16;100966.66;;;11.00;100.00
15308;BME280;7755;52.208;6.964;2022-12-20T02:36:21;100947.88;;;10.99;100.00
15308;BME280;7755;52.208;6.964;2022-12-20T02:40:28;100947.13;;;11.03;100.00
15308;BME280;7755;52.208;6.964;2022-12-20T02:44:36;100939.72;;;10.99;100.00
15308;BME280;7755;52.208;6.964;2022-12-20T02:49:01;100940.66;;;11.04;100.00
15308;BME280;7755;52.208;6.964;2022-12-20T02:53:06;100950.09;;;11.02;100.00
15308;BME280;7755;52.208;6.964;2022-12-20T02:57:16;100945.59;;;10.96;100.00
15308;BME280;7755;52.208;6.964;2022-12-20T03:01:24;100942.56;;;10.92;100.00
15308;BME280;7755;52.208;6.964;2022-12-20T03:05:33;100942.75;;;10.90;100.00
15308;BME280;7755;52.208;6.964;2022-12-20T03:09:38;100946.22;;;10.86;100.00
15308;BME280;7755;52.208;6.964;2022-12-20T03:13:41;100933.69;;;10.85;100.00
15308;BME280;7755;52.208;6.964;2022-12-20T03:17:44;100931.91;;;10.79;100.00
15308;BME280;7755;52.208;6.964;2022-12-20T03:21:48;100925.38;;;10.68;100.00
15308;BME280;7755;52.208;6.964;2022-12-20T03:25:51;100920.88;;;10.62;100.00
15308;BME280;7755;52.208;6.964;2022-12-20T03:30:13;100934.00;;;10.53;100.00
15308;BME280;7755;52.208;6.964;2022-12-20T03:34:16;100941.44;;;10.46;100.00
15308;BME280;7755;52.208;6.964;2022-12-20T03:38:21;100912.72;;;10.38;100.00
15308;BME280;7755;52.208;6.964;2022-12-20T03:42:23;100911.28;;;10.36;100.00
15308;BME280;7755;52.208;6.964;2022-12-20T03:46:26;100911.63;;;10.28;100.00
15308;BME280;7755;52.208;6.964;2022-12-20T03:50:30;100916.81;;;10.29;100.00
15308;BME280;7755;52.208;6.964;2022-12-20T03:54:36;100917.88;;;10.28;100.00
15308;BME280;7755;52.208;6.964;2022-12-20T03:58:46;100915.66;;;10.25;100.00
15308;BME280;7755;52.208;6.964;2022-12-20T04:02:50;100933.38;;;10.28;100.00
15308;BME280;7755;52.208;6.964;2022-12-20T04:06:53;100927.59;;;10.24;100.00
15308;BME280;7755;52.208;6.964;2022-12-20T04:10:57;100920.84;;;10.27;100.00
15308;BME280;7755;52.208;6.964;2022-12-20T04:15:24;100906.06;;;10.23;100.00
15308;BME280;7755;52.208;6.964;2022-12-20T04:19:27;100907.09;;;10.22;100.00
15308;BME280;7755;52.208;6.964;2022-12-20T04:23:31;100893.75;;;10.20;100.00
15308;BME280;7755;52.208;6.964;2022-12-20T04:27:35;100897.91;;;10.23;100.00
15308;BME280;7755;52.208;6.964;2022-12-20T04:31:41;100889.38;;;10.19;100.00
15308;BME280;7755;52.208;6.964;2022-12-20T04:35:44;100876.28;;;10.16;100.00
15308;BME280;7755;52.208;6.964;2022-12-20T04:39:47;100900.00;;;10.21;100.00
15308;BME280;7755;52.208;6.964;2022-12-20T04:43:56;100885.16;;;10.23;100.00
15308;BME280;7755;52.208;6.964;2022-12-20T04:48:08;100878.50;;;10.19;100.00
15308;BME280;7755;52.208;6.964;2022-12-20T04:52:30;100872.00;;;10.20;100.00
15308;BME280;7755;52.208;6.964;2022-12-20T04:56:52;100882.75;;;10.15;100.00
15308;BME280;7755;52.208;6.964;2022-12-20T05:00:58;100870.84;;;10.16;100.00
15308;BME280;7755;52.208;6.964;2022-12-20T05:05:08;100878.50;;;10.19;100.00
15308;BME280;7755;52.208;6.964;2022-12-20T05:09:17;100874.97;;;10.19;100.00
15308;BME280;7755;52.208;6.964;2022-12-20T05:13:20;100879.91;;;10.22;100.00
15308;BME280;7755;52.208;6.964;2022-12-20T05:17:25;100877.19;;;10.22;100.00
15308;BME280;7755;52.208;6.964;2022-12-20T05:21:28;100873.44;;;10.23;100.00
15308;BME280;7755;52.208;6.964;2022-12-20T05:25:49;100869.88;;;10.22;100.00
15308;BME280;7755;52.208;6.964;2022-12-20T05:30:12;100872.75;;;10.27;100.00
15308;BME280;7755;52.208;6.964;2022-12-20T05:34:19;100858.34;;;10.27;100.00
15308;BME280;7755;52.208;6.964;2022-12-20T05:38:27;100855.63;;;10.27;100.00
15308;BME280;7755;52.208;6.964;2022-12-20T05:42:30;100863.53;;;10.28;100.00
15308;BME280;7755;52.208;6.964;2022-12-20T05:46:33;100848.06;;;10.29;100.00
15308;BME280;7755;52.208;6.964;2022-12-20T05:50:43;100861.06;;;10.27;100.00
15308;BME280;7755;52.208;6.964;2022-12-20T05:54:59;100846.28;;;10.23;100.00
15308;BME280;7755;52.208;6.964;2022-12-20T05:59:03;100850.78;;;10.29;100.00
15308;BME280;7755;52.208;6.964;2022-12-20T06:03:06;100845.13;;;10.30;100.00
15308;BME280;7755;52.208;6.964;2022-12-20T06:07:12;100850.66;;;10.35;100.00
15308;BME280;7755;52.208;6.964;2022-12-20T06:11:17;100847.72;;;10.37;100.00
15308;BME280;7755;52.208;6.964;2022-12-20T06:15:33;100850.22;;;10.38;100.00
15308;BME280;7755;52.208;6.964;2022-12-20T06:19:36;100849.72;;;10.42;100.00
15308;BME280;7755;52.208;6.964;2022-12-20T06:23:44;100841.94;;;10.45;100.00
15308;BME280;7755;52.208;6.964;2022-12-20T06:27:48;100843.00;;;10.44;100.00
15308;BME280;7755;52.208;6.964;2022-12-20T06:31:51;100847.72;;;10.49;100.00
15308;BME280;7755;52.208;6.964;2022-12-20T06:35:54;100840.38;;;10.49;100.00
15308;BME280;7755;52.208;6.964;2022-12-20T06:39:59;100847.84;;;10.54;100.00
15308;BME280;7755;52.208;6.964;2022-12-20T06:44:02;100833.19;;;10.55;100.00
15308;BME280;7755;52.208;6.964;2022-12-20T06:48:06;100842.16;;;10.55;100.00
15308;BME280;7755;52.208;6.964;2022-12-20T06:52:09;100836.50;;;10.57;100.00
15308;BME280;7755;52.208;6.964;2022-12-20T06:56:25;100832.09;;;10.56;100.00
15308;BME280;7755;52.208;6.964;2022-12-20T07:00:28;100830.34;;;10.61;100.00
15308;BME280;7755;52.208;6.964;2022-12-20T07:04:32;100828.44;;;10.62;100.00
15308;BME280;7755;52.208;6.964;2022-12-20T07:08:34;100819.81;;;10.65;100.00
15308;BME280;7755;52.208;6.964;2022-12-20T07:12:39;100807.06;;;10.65;100.00
15308;BME280;7755;52.208;6.964;2022-12-20T07:16:48;100814.97;;;10.67;100.00
15308;BME280;7755;52.208;6.964;2022-12-20T07:20:51;100807.19;;;10.71;100.00
15308;BME280;7755;52.208;6.964;2022-12-20T07:24:54;100798.41;;;10.69;100.00
15308;BME280;7755;52.208;6.964;2022-12-20T07:28:58;100797.81;;;10.66;100.00
15308;BME280;7755;52.208;6.964;2022-12-20T07:33:01;100790.50;;;10.67;100.00
15308;BME280;7755;52.208;6.964;2022-12-20T07:37:04;100788.25;;;10.64;100.00
15308;BME280;7755;52.208;6.964;2022-12-20T07:41:10;100785.56;;;10.64;100.00
15308;BME280;7755;52.208;6.964;2022-12-20T07:45:15;100777.97;;;10.66;100.00
15308;BME280;7755;52.208;6.964;2022-12-20T07:49:18;100786.38;;;10.64;100.00
15308;BME280;7755;52.208;6.964;2022-12-20T07:53:21;100789.09;;;10.64;100.00
15308;BME280;7755;52.208;6.964;2022-12-20T07:57:30;100795.09;;;10.66;100.00
15308;BME280;7755;52.208;6.964;2022-12-20T08:01:35;100793.56;;;10.71;100.00
15308;BME280;7755;52.208;6.964;2022-12-20T08:05:40;100784.56;;;10.70;100.00
15308;BME280;7755;52.208;6.964;2022-12-20T08:09:44;100769.56;;;10.68;100.00
15308;BME280;7755;52.208;6.964;2022-12-20T08:13:48;100763.66;;;10.71;100.00
15308;BME280;7755;52.208;6.964;2022-12-20T08:17:59;100749.31;;;10.75;100.00
15308;BME280;7755;52.208;6.964;2022-12-20T08:22:02;100753.22;;;10.79;100.00
15308;BME280;7755;52.208;6.964;2022-12-20T08:26:06;100751.91;;;10.82;100.00
15308;BME280;7755;52.208;6.964;2022-12-20T08:30:09;100770.50;;;10.85;100.00
15308;BME280;7755;52.208;6.964;2022-12-20T08:34:13;100773.53;;;10.88;100.00
15308;BME280;7755;52.208;6.964;2022-12-20T08:38:16;100775.78;;;10.91;100.00
15308;BME280;7755;52.208;6.964;2022-12-20T08:42:20;100770.44;;;10.97;100.00
15308;BME280;7755;52.208;6.964;2022-12-20T08:46:23;100765.91;;;11.02;100.00
15308;BME280;7755;52.208;6.964;2022-12-20T08:50:27;100764.38;;;11.06;100.00
15308;BME280;7755;52.208;6.964;2022-12-20T08:54:30;100750.53;;;11.08;100.00
15308;BME280;7755;52.208;6.964;2022-12-20T08:58:33;100757.38;;;11.10;100.00
15308;BME280;7755;52.208;6.964;2022-12-20T09:02:36;100751.56;;;11.18;100.00
15308;BME280;7755;52.208;6.964;2022-12-20T09:06:41;100764.19;;;11.25;100.00
15308;BME280;7755;52.208;6.964;2022-12-20T09:10:43;100753.47;;;11.35;100.00
15308;BME280;7755;52.208;6.964;2022-12-20T09:14:46;100748.13;;;11.40;100.00
15308;BME280;7755;52.208;6.964;2022-12-20T09:18:49;100752.25;;;11.42;100.00
15308;BME280;7755;52.208;6.964;2022-12-20T09:22:53;100755.41;;;11.51;100.00
15308;BME280;7755;52.208;6.964;2022-12-20T09:26:56;100763.34;;;11.53;100.00
15308;BME280;7755;52.208;6.964;2022-12-20T09:30:59;100759.28;;;11.55;100.00
15308;BME280;7755;52.208;6.964;2022-12-20T09:35:03;100770.53;;;11.59;100.00
15308;BME280;7755;52.208;6.964;2022-12-20T09:39:07;100767.88;;;11.64;100.00
15308;BME280;7755;52.208;6.964;2022-12-20T09:43:11;100775.06;;;11.70;100.00
15308;BME280;7755;52.208;6.964;2022-12-20T09:47:16;100773.50;;;11.74;100.00
15308;BME280;7755;52.208;6.964;2022-12-20T09:51:38;100790.78;;;11.80;100.00
15308;BME280;7755;52.208;6.964;2022-12-20T09:55:50;100791.50;;;11.75;100.00
15308;BME280;7755;52.208;6.964;2022-12-20T09:59:55;100794.38;;;11.68;100.00
15308;BME280;7755;52.208;6.964;2022-12-20T10:04:03;100783.69;;;11.50;100.00
15308;BME280;7755;52.208;6.964;2022-12-20T10:08:12;100781.38;;;11.42;100.00
15308;BME280;7755;52.208;6.964;2022-12-20T10:12:28;100772.22;;;11.31;100.00
15308;BME280;7755;52.208;6.964;2022-12-20T10:16:39;100780.75;;;11.23;100.00
15308;BME280;7755;52.208;6.964;2022-12-20T10:20:52;100763.75;;;11.16;100.00
15308;BME280;7755;52.208;6.964;2022-12-20T10:25:00;100757.03;;;11.07;100.00
15308;BME280;7755;52.208;6.964;2022-12-20T10:29:05;100749.59;;;11.02;100.00
15308;BME280;7755;52.208;6.964;2022-12-20T10:33:15;100751.38;;;10.97;100.00
15308;BME280;7755;52.208;6.964;2022-12-20T10:37:18;100743.22;;;10.97;100.00
15308;BME280;7755;52.208;6.964;2022-12-20T10:41:22;100733.16;;;10.97;100.00
15308;BME280;7755;52.208;6.964;2022-12-20T10:45:32;100724.53;;;11.00;100.00
15308;BME280;7755;52.208;6.964;2022-12-20T10:49:38;100723.00;;;11.04;100.00
15308;BME280;7755;52.208;6.964;2022-12-20T10:53:53;100722.38;;;11.02;100.00
15308;BME280;7755;52.208;6.964;2022-12-20T10:58:02;100730.56;;;11.02;100.00
15308;BME280;7755;52.208;6.964;2022-12-20T11:02:23;100730.81;;;11.01;100.00
15308;BME280;7755;52.208;6.964;2022-12-20T11:06:38;100718.75;;;10.97;100.00
15308;BME280;7755;52.208;6.964;2022-12-20T11:10:42;100714.97;;;10.98;100.00
15308;BME280;7755;52.208;6.964;2022-12-20T11:14:46;100715.19;;;10.96;100.00
15308;BME280;7755;52.208;6.964;2022-12-20T11:18:59;100705.97;;;10.97;100.00
15308;BME280;7755;52.208;6.964;2022-12-20T11:23:16;100702.19;;;10.98;100.00
15308;BME280;7755;52.208;6.964;2022-12-20T11:27:30;100705.00;;;11.03;100.00
15308;BME280;7755;52.208;6.964;2022-12-20T11:31:43;100688.66;;;11.03;100.00
15308;BME280;7755;52.208;6.964;2022-12-20T11:35:55;100686.88;;;11.09;100.00
15308;BME280;7755;52.208;6.964;2022-12-20T11:40:09;100686.41;;;11.12;100.00
15308;BME280;7755;52.208;6.964;2022-12-20T11:44:24;100677.47;;;11.16;100.00
15308;BME280;7755;52.208;6.964;2022-12-20T11:48:44;100681.63;;;11.19;100.00
15308;BME280;7755;52.208;6.964;2022-12-20T11:52:54;100683.84;;;11.22;100.00
15308;BME280;7755;52.208;6.964;2022-12-20T11:57:05;100676.03;;;11.26;100.00
15308;BME280;7755;52.208;6.964;2022-12-20T12:01:13;100665.97;;;11.26;100.00
15308;BME280;7755;52.208;6.964;2022-12-20T12:05:21;100668.44;;;11.28;100.00
15308;BME280;7755;52.208;6.964;2022-12-20T12:09:31;100664.63;;;11.29;100.00
15308;BME280;7755;52.208;6.964;2022-12-20T12:13:39;100662.50;;;11.31;100.00
15308;BME280;7755;52.208;6.964;2022-12-20T12:17:45;100665.47;;;11.29;100.00
15308;BME280;7755;52.208;6.964;2022-12-20T12:21:56;100661.59;;;11.25;100.00
15308;BME280;7755;52.208;6.964;2022-12-20T12:26:08;100662.06;;;11.22;100.00
15308;BME280;7755;52.208;6.964;2022-12-20T12:30:13;100665.31;;;11.19;100.00
15308;BME280;7755;52.208;6.964;2022-12-20T12:34:28;100668.75;;;11.14;100.00
15308;BME280;7755;52.208;6.964;2022-12-20T12:38:52;100659.75;;;11.14;100.00
15308;BME280;7755;52.208;6.964;2022-12-20T12:43:18;100664.84;;;11.10;100.00
15308;BME280;7755;52.208;6.964;2022-12-20T12:47:33;100661.81;;;11.07;100.00
15308;BME280;7755;52.208;6.964;2022-12-20T12:51:38;100658.53;;;11.05;100.00
15308;BME280;7755;52.208;6.964;2022-12-20T12:55:44;100653.91;;;11.05;100.00
15308;BME280;7755;52.208;6.964;2022-12-20T12:59:49;100654.63;;;11.01;100.00
15308;BME280;7755;52.208;6.964;2022-12-20T13:04:08;100658.91;;;10.97;100.00
15308;BME280;7755;52.208;6.964;2022-12-20T13:08:15;100653.97;;;10.93;100.00
15308;BME280;7755;52.208;6.964;2022-12-20T13:12:46;100657.16;;;10.90;100.00
15308;BME280;7755;52.208;6.964;2022-12-20T13:21:31;100642.50;;;10.91;100.00
15308;BME280;7755;52.208;6.964;2022-12-20T13:25:38;100641.06;;;10.89;100.00
15308;BME280;7755;52.208;6.964;2022-12-20T13:29:56;100641.69;;;10.91;100.00
15308;BME280;7755;52.208;6.964;2022-12-20T13:34:00;100635.63;;;10.89;100.00
15308;BME280;7755;52.208;6.964;2022-12-20T13:42:50;100651.63;;;10.85;100.00
15308;BME280;7755;52.208;6.964;2022-12-20T13:46:59;100646.44;;;10.84;100.00
15308;BME280;7755;52.208;6.964;2022-12-20T13:51:04;100639.56;;;10.81;100.00
15308;BME280;7755;52.208;6.964;2022-12-20T13:55:22;100636.53;;;10.78;100.00
15308;BME280;7755;52.208;6.964;2022-12-20T13:59:30;100635.72;;;10.77;100.00
15308;BME280;7755;52.208;6.964;2022-12-20T14:03:39;100637.13;;;10.80;100.00
15308;BME280;7755;52.208;6.964;2022-12-20T14:07:45;100629.19;;;10.78;100.00
15308;BME280;7755;52.208;6.964;2022-12-20T14:11:50;100643.63;;;10.79;100.00
15308;BME280;7755;52.208;6.964;2022-12-20T14:15:54;100648.25;;;10.78;100.00
15308;BME280;7755;52.208;6.964;2022-12-20T14:20:05;100643.88;;;10.77;100.00
15308;BME280;7755;52.208;6.964;2022-12-20T14:24:13;100649.53;;;10.76;100.00
15308;BME280;7755;52.208;6.964;2022-12-20T14:28:28;100650.59;;;10.75;100.00
15308;BME280;7755;52.208;6.964;2022-12-20T14:32:32;100648.97;;;10.74;100.00
15308;BME280;7755;52.208;6.964;2022-12-20T14:36:35;100648.47;;;10.77;100.00
15308;BME280;7755;52.208;6.964;2022-12-20T14:40:40;100647.31;;;10.73;100.00
15308;BME280;7755;52.208;6.964;2022-12-20T14:44:45;100655.47;;;10.73;100.00
15308;BME280;7755;52.208;6.964;2022-12-20T14:49:04;100643.16;;;10.70;100.00
15308;BME280;7755;52.208;6.964;2022-12-20T14:53:16;100634.19;;;10.70;100.00
15308;BME280;7755;52.208;6.964;2022-12-20T14:57:22;100638.59;;;10.71;100.00
15308;BME280;7755;52.208;6.964;2022-12-20T15:01:30;100627.34;;;10.67;100.00
15308;BME280;7755;52.208;6.964;2022-12-20T15:05:44;100620.72;;;10.63;100.00
15308;BME280;7755;52.208;6.964;2022-12-20T15:09:47;100624.06;;;10.65;100.00
15308;BME280;7755;52.208;6.964;2022-12-20T15:13:52;100621.59;;;10.63;100.00
15308;BME280;7755;52.208;6.964;2022-12-20T15:17:57;100619.44;;;10.65;100.00
15308;BME280;7755;52.208;6.964;2022-12-20T15:22:00;100626.84;;;10.70;100.00
15308;BME280;7755;52.208;6.964;2022-12-20T15:26:03;100627.09;;;10.69;100.00
15308;BME280;7755;52.208;6.964;2022-12-20T15:30:10;100644.03;;;10.71;100.00
15308;BME280;7755;52.208;6.964;2022-12-20T15:34:18;100622.72;;;10.68;100.00
15308;BME280;7755;52.208;6.964;2022-12-20T15:38:25;100612.44;;;10.70;100.00
15308;BME280;7755;52.208;6.964;2022-12-20T15:42:48;100608.66;;;10.71;100.00
15308;BME280;7755;52.208;6.964;2022-12-20T15:46:51;100615.50;;;10.73;100.00
15308;BME280;7755;52.208;6.964;2022-12-20T15:50:56;100606.53;;;10.73;100.00
15308;BME280;7755;52.208;6.964;2022-12-20T15:54:59;100590.47;;;10.71;100.00
15308;BME280;7755;52.208;6.964;2022-12-20T15:59:02;100593.75;;;10.73;100.00
15308;BME280;7755;52.208;6.964;2022-12-20T16:03:29;100600.59;;;10.76;100.00
15308;BME280;7755;52.208;6.964;2022-12-20T16:07:34;100606.53;;;10.73;100.00
15308;BME280;7755;52.208;6.964;2022-12-20T16:11:37;100625.31;;;10.74;100.00
15308;BME280;7755;52.208;6.964;2022-12-20T16:15:41;100627.22;;;10.74;100.00
15308;BME280;7755;52.208;6.964;2022-12-20T16:19:44;100613.25;;;10.70;100.00
15308;BME280;7755;52.208;6.964;2022-12-20T16:23:49;100617.03;;;10.69;100.00
15308;BME280;7755;52.208;6.964;2022-12-20T16:27:52;100609.72;;;10.70;100.00
15308;BME280;7755;52.208;6.964;2022-12-20T16:31:55;100614.94;;;10.71;100.00
15308;BME280;7755;52.208;6.964;2022-12-20T16:35:58;100616.31;;;10.74;100.00
15308;BME280;7755;52.208;6.964;2022-12-20T16:40:03;100627.72;;;10.71;100.00
15308;BME280;7755;52.208;6.964;2022-12-20T16:44:09;100625.81;;;10.71;100.00
15308;BME280;7755;52.208;6.964;2022-12-20T16:48:14;100618.69;;;10.70;100.00
15308;BME280;7755;52.208;6.964;2022-12-20T16:52:17;100621.66;;;10.69;100.00
15308;BME280;7755;52.208;6.964;2022-12-20T16:56:21;100627.34;;;10.67;100.00
15308;BME280;7755;52.208;6.964;2022-12-20T17:00:25;100630.31;;;10.65;100.00
15308;BME280;7755;52.208;6.964;2022-12-20T17:04:28;100625.13;;;10.64;100.00
15308;BME280;7755;52.208;6.964;2022-12-20T17:08:31;100622.97;;;10.66;100.00
15308;BME280;7755;52.208;6.964;2022-12-20T17:12:53;100630.56;;;10.64;100.00
15308;BME280;7755;52.208;6.964;2022-12-20T17:16:56;100630.78;;;10.62;100.00
15308;BME280;7755;52.208;6.964;2022-12-20T17:21:00;100638.72;;;10.64;100.00
15308;BME280;7755;52.208;6.964;2022-12-20T17:25:05;100641.44;;;10.64;100.00
15308;BME280;7755;52.208;6.964;2022-12-20T17:29:09;100635.19;;;10.63;100.00
15308;BME280;7755;52.208;6.964;2022-12-20T17:33:13;100628.88;;;10.63;100.00
15308;BME280;7755;52.208;6.964;2022-12-20T17:37:17;100629.75;;;10.63;100.00
15308;BME280;7755;52.208;6.964;2022-12-20T17:41:22;100629.75;;;10.63;100.00
15308;BME280;7755;52.208;6.964;2022-12-20T17:45:29;100631.84;;;10.61;100.00
15308;BME280;7755;52.208;6.964;2022-12-20T17:49:33;100623.94;;;10.60;100.00
15308;BME280;7755;52.208;6.964;2022-12-20T17:53:35;100616.63;;;10.60;100.00
15308;BME280;7755;52.208;6.964;2022-12-20T17:57:38;100622.06;;;10.60;100.00
15308;BME280;7755;52.208;6.964;2022-12-20T18:01:43;100614.16;;;10.59;100.00
15308;BME280;7755;52.208;6.964;2022-12-20T18:05:46;100620.97;;;10.61;100.00
15308;BME280;7755;52.208;6.964;2022-12-20T18:09:49;100614.16;;;10.59;100.00
15308;BME280;7755;52.208;6.964;2022-12-20T18:13:55;100608.47;;;10.60;100.00
15308;BME280;7755;52.208;6.964;2022-12-20T18:18:00;100614.47;;;10.62;100.00
15308;BME280;7755;52.208;6.964;2022-12-20T18:22:03;100601.13;;;10.61;100.00
15308;BME280;7755;52.208;6.964;2022-12-20T18:26:08;100610.13;;;10.61;100.00
15308;BME280;7755;52.208;6.964;2022-12-20T18:30:13;100604.69;;;10.61;100.00
15308;BME280;7755;52.208;6.964;2022-12-20T18:34:17;100614.25;;;10.64;100.00
15308;BME280;7755;52.208;6.964;2022-12-20T18:38:20;100607.38;;;10.61;100.00
15308;BME280;7755;52.208;6.964;2022-12-20T18:42:23;100590.16;;;10.56;100.00
15308;BME280;7755;52.208;6.964;2022-12-20T18:46:40;100594.31;;;10.58;100.00
15308;BME280;7755;52.208;6.964;2022-12-20T18:50:44;100598.66;;;10.59;100.00
15308;BME280;7755;52.208;6.964;2022-12-20T18:54:47;100591.91;;;10.62;100.00
15308;BME280;7755;52.208;6.964;2022-12-20T18:58:50;100594.03;;;10.60;100.00
15308;BME280;7755;52.208;6.964;2022-12-20T19:02:54;100597.84;;;10.59;100.00
15308;BME280;7755;52.208;6.964;2022-12-20T19:07:01;100595.13;;;10.59;100.00
15308;BME280;7755;52.208;6.964;2022-12-20T19:11:05;100602.47;;;10.58;100.00
15308;BME280;7755;52.208;6.964;2022-12-20T19:15:09;100596.66;;;10.55;100.00
15308;BME280;7755;52.208;6.964;2022-12-20T19:19:12;100603.19;;;10.54;100.00
15308;BME280;7755;52.208;6.964;2022-12-20T19:23:16;100593.63;;;10.51;100.00
15308;BME280;7755;52.208;6.964;2022-12-20T19:27:21;100602.94;;;10.55;100.00
15308;BME280;7755;52.208;6.964;2022-12-20T19:31:25;100603.44;;;10.52;100.00
15308;BME280;7755;52.208;6.964;2022-12-20T19:35:29;100601.53;;;10.53;100.00
15308;BME280;7755;52.208;6.964;2022-12-20T19:39:53;100603.69;;;10.51;100.00
15308;BME280;7755;52.208;6.964;2022-12-20T19:43:56;100602.59;;;10.52;100.00
15308;BME280;7755;52.208;6.964;2022-12-20T19:47:59;100616.91;;;10.47;100.00
15308;BME280;7755;52.208;6.964;2022-12-20T19:52:03;100613.13;;;10.48;100.00
15308;BME280;7755;52.208;6.964;2022-12-20T19:56:08;100608.75;;;10.47;100.00
15308;BME280;7755;52.208;6.964;2022-12-20T20:00:12;100612.28;;;10.48;100.00
15308;BME280;7755;52.208;6.964;2022-12-20T20:04:15;100601.66;;;10.46;100.00
15308;BME280;7755;52.208;6.964;2022-12-20T20:08:18;100612.53;;;10.46;100.00
15308;BME280;7755;52.208;6.964;2022-12-20T20:12:22;100609.56;;;10.48;100.00
15308;BME280;7755;52.208;6.964;2022-12-20T20:16:25;100613.13;;;10.48;100.00
15308;BME280;7755;52.208;6.964;2022-12-20T20:20:28;100601.41;;;10.48;100.00
15308;BME280;7755;52.208;6.964;2022-12-20T20:24:31;100613.94;;;10.49;100.00
15308;BME280;7755;52.208;6.964;2022-12-20T20:28:35;100604.63;;;10.45;100.00
15308;BME280;7755;52.208;6.964;2022-12-20T20:32:46;100609.56;;;10.48;100.00
15308;BME280;7755;52.208;6.964;2022-12-20T20:36:48;100605.22;;;10.47;100.00
15308;BME280;7755;52.208;6.964;2022-12-20T20:40:51;100609.56;;;10.48;100.00
15308;BME280;7755;52.208;6.964;2022-12-20T20:44:56;100604.13;;;10.48;100.00
15308;BME280;7755;52.208;6.964;2022-12-20T20:49:03;100608.44;;;10.44;100.00
15308;BME280;7755;52.208;6.964;2022-12-20T20:53:06;100617.41;;;10.44;100.00
15308;BME280;7755;52.208;6.964;2022-12-20T20:57:09;100602.50;;;10.47;100.00
15308;BME280;7755;52.208;6.964;2022-12-20T21:01:13;100607.94;;;10.47;100.00
15308;BME280;7755;52.208;6.964;2022-12-20T21:05:16;100598.13;;;10.46;100.00
15308;BME280;7755;52.208;6.964;2022-12-20T21:09:39;100597.31;;;10.45;100.00
15308;BME280;7755;52.208;6.964;2022-12-20T21:13:42;100599.19;;;10.45;100.00
15308;BME280;7755;52.208;6.964;2022-12-20T21:17:46;100604.13;;;10.48;100.00
15308;BME280;7755;52.208;6.964;2022-12-20T21:21:49;100596.00;;;10.48;100.00
15308;BME280;7755;52.208;6.964;2022-12-20T21:25:55;100594.34;;;10.47;100.00
15308;BME280;7755;52.208;6.964;2022-12-20T21:29:57;100598.13;;;10.46;100.00
15308;BME280;7755;52.208;6.964;2022-12-20T21:34:02;100605.72;;;10.44;100.00
15308;BME280;7755;52.208;6.964;2022-12-20T21:38:04;100597.06;;;10.47;100.00